Time;durP1;ratioP1;P1;durP2;ratioP2;P2;SDS_P1;SDS_P2;PMS_P1;PMS_P2;Temp;Humidity;BMP_temperature;BMP_pressure;BME280_temperature;BME280_humidity;BME280_pressure;Samples;Min_cycle;Max_cycle;Signal;HPM_P1;HPM_P2
2021/11/11 00:00:13;;;;;;;19.60;9.93;;;;;;;;;;5056244;28;20017;-70
2021/11/11 00:02:40;;;;;;;19.35;10.85;;;;;;;;;;5055369;28;20052;-70
2021/11/11 00:05:09;;;;;;;18.73;11.93;;;;;;;;;;5055209;28;20059;-71
2021/11/11 00:07:35;;;;;;;21.20;13.20;;;;;;;;;;5054428;28;20024;-70
2021/11/11 00:10:01;;;;;;;27.05;14.93;;;;;;;;;;5054009;28;20021;-70
2021/11/11 00:12:31;;;;;;;24.52;13.30;;;;;;;;;;5055560;28;20492;-71
2021/11/11 00:14:58;;;;;;;24.45;15.00;;;;;;;;;;5056042;28;20053;-71
2021/11/11 00:17:24;;;;;;;23.77;13.80;;;;;;;;;;5055082;28;20025;-70
2021/11/11 00:19:50;;;;;;;23.60;13.63;;;;;;;;;;5055497;28;20029;-70
2021/11/11 00:22:16;;;;;;;27.77;14.00;;;;;;;;;;5055370;28;20040;-71
2021/11/11 00:24:43;;;;;;;23.33;13.57;;;;;;;;;;5055031;28;20021;-71
2021/11/11 00:27:09;;;;;;;26.08;14.27;;;;;;;;;;5055425;28;20029;-70
2021/11/11 00:29:35;;;;;;;23.02;12.68;;;;;;;;;;5054934;28;20418;-71
2021/11/11 00:32:02;;;;;;;21.08;11.07;;;;;;;;;;5054337;28;20072;-71
2021/11/11 00:34:28;;;;;;;18.50;10.27;;;;;;;;;;5055267;28;20100;-71
2021/11/11 00:36:54;;;;;;;17.25;9.27;;;;;;;;;;5054940;28;20024;-70
2021/11/11 00:39:20;;;;;;;19.40;8.90;;;;;;;;;;5055157;28;20021;-70
2021/11/11 00:41:46;;;;;;;28.55;14.55;;;;;;;;;;5055039;28;20032;-70
2021/11/11 00:44:13;;;;;;;27.33;13.40;;;;;;;;;;5054838;28;20021;-70
2021/11/11 00:46:39;;;;;;;28.60;13.48;;;;;;;;;;5054962;28;20031;-70
2021/11/11 00:49:08;;;;;;;17.05;8.48;;;;;;;;;;5055020;28;20021;-70
2021/11/11 00:51:35;;;;;;;12.02;6.05;;;;;;;;;;5054335;28;20025;-70
2021/11/11 00:54:02;;;;;;;12.93;5.75;;;;;;;;;;5054787;28;20033;-70
2021/11/11 00:56:28;;;;;;;11.60;5.53;;;;;;;;;;5053429;28;20025;-71
2021/11/11 00:58:55;;;;;;;12.90;6.45;;;;;;;;;;5054421;28;20120;-71
2021/11/11 01:01:21;;;;;;;17.65;8.95;;;;;;;;;;5054814;28;20025;-70
2021/11/11 01:03:49;;;;;;;20.30;10.05;;;;;;;;;;5055453;28;20048;-70
2021/11/11 01:06:17;;;;;;;49.22;24.17;;;;;;;;;;5054521;28;20021;-70
2021/11/11 01:08:43;;;;;;;64.25;32.38;;;;;;;;;;5054858;28;20032;-70
2021/11/11 01:11:10;;;;;;;42.17;20.48;;;;;;;;;;5054917;28;20068;-71
2021/11/11 01:13:37;;;;;;;26.92;14.80;;;;;;;;;;5054153;28;20056;-70
2021/11/11 01:16:04;;;;;;;26.52;11.98;;;;;;;;;;5053750;28;20032;-70
2021/11/11 01:18:30;;;;;;;28.13;14.95;;;;;;;;;;5054832;28;20389;-71
2021/11/11 01:20:56;;;;;;;23.08;11.85;;;;;;;;;;5053870;28;20032;-70
2021/11/11 01:23:23;;;;;;;23.20;11.75;;;;;;;;;;5054611;28;20381;-70
2021/11/11 01:25:49;;;;;;;23.63;11.95;;;;;;;;;;5052548;28;20021;-70
2021/11/11 01:28:15;;;;;;;29.23;16.20;;;;;;;;;;5054125;28;20032;-70
2021/11/11 01:30:44;;;;;;;41.13;23.77;;;;;;;;;;5054133;28;20025;-71
2021/11/11 01:33:10;;;;;;;37.03;19.60;;;;;;;;;;5053458;28;20454;-70
2021/11/11 01:35:37;;;;;;;28.77;15.60;;;;;;;;;;5054048;28;20029;-70
2021/11/11 01:38:03;;;;;;;23.77;12.68;;;;;;;;;;5053994;28;20094;-70
2021/11/11 01:40:29;;;;;;;22.98;11.27;;;;;;;;;;5052466;28;20024;-70
2021/11/11 01:42:57;;;;;;;22.88;12.27;;;;;;;;;;5053886;28;20532;-70
2021/11/11 01:45:24;;;;;;;16.42;8.30;;;;;;;;;;5053715;28;20024;-70
2021/11/11 01:47:51;;;;;;;21.13;10.10;;;;;;;;;;5053486;28;20040;-71
2021/11/11 01:50:17;;;;;;;17.27;8.10;;;;;;;;;;5053920;28;20033;-71
2021/11/11 01:52:44;;;;;;;14.57;7.72;;;;;;;;;;5053694;28;20450;-70
2021/11/11 01:55:10;;;;;;;16.88;7.38;;;;;;;;;;5053297;28;20051;-71
2021/11/11 01:57:37;;;;;;;14.00;7.07;;;;;;;;;;5053660;28;20021;-70
2021/11/11 02:00:08;;;;;;;12.25;6.32;;;;;;;;;;5053823;28;20099;-70
2021/11/11 02:02:34;;;;;;;12.50;6.45;;;;;;;;;;5053234;28;20096;-70
2021/11/11 02:05:00;;;;;;;13.07;6.40;;;;;;;;;;5053533;28;20024;-70
2021/11/11 02:07:26;;;;;;;15.80;7.18;;;;;;;;;;5053537;28;20489;-70
2021/11/11 02:09:53;;;;;;;13.88;6.35;;;;;;;;;;5052306;28;20021;-70
2021/11/11 02:12:19;;;;;;;10.75;6.03;;;;;;;;;;5053408;28;20036;-70
2021/11/11 02:14:45;;;;;;;10.93;5.25;;;;;;;;;;5053375;28;20046;-71
2021/11/11 02:17:12;;;;;;;12.32;5.82;;;;;;;;;;5051665;28;20033;-71
2021/11/11 02:19:42;;;;;;;12.50;6.68;;;;;;;;;;5052974;28;20480;-71
2021/11/11 02:22:08;;;;;;;11.13;6.22;;;;;;;;;;5052778;28;20389;-70
2021/11/11 02:24:34;;;;;;;13.02;5.93;;;;;;;;;;5053321;28;20100;-71
2021/11/11 02:27:00;;;;;;;10.80;5.40;;;;;;;;;;5053221;28;20025;-70
2021/11/11 02:29:28;;;;;;;12.25;6.55;;;;;;;;;;5053116;28;20029;-71
2021/11/11 02:31:54;;;;;;;13.55;6.03;;;;;;;;;;5051467;28;20049;-70
2021/11/11 02:34:23;;;;;;;14.00;7.60;;;;;;;;;;5053152;28;20017;-71
2021/11/11 02:36:53;;;;;;;18.52;10.30;;;;;;;;;;5052727;28;20183;-70
2021/11/11 02:39:20;;;;;;;16.45;8.07;;;;;;;;;;5053188;28;20048;-70
2021/11/11 02:41:46;;;;;;;13.55;6.95;;;;;;;;;;5053065;28;20036;-71
2021/11/11 02:44:14;;;;;;;13.13;7.10;;;;;;;;;;5052740;28;20461;-70
2021/11/11 02:46:40;;;;;;;13.70;7.05;;;;;;;;;;5053046;28;20037;-71
2021/11/11 02:49:06;;;;;;;14.95;8.93;;;;;;;;;;5052967;28;20017;-70
2021/11/11 02:51:32;;;;;;;13.38;8.25;;;;;;;;;;5052886;28;20511;-70
2021/11/11 02:53:58;;;;;;;12.48;6.75;;;;;;;;;;5052918;28;20036;-70
2021/11/11 02:56:25;;;;;;;12.75;6.80;;;;;;;;;;5053020;28;20100;-71
2021/11/11 02:58:51;;;;;;;11.52;6.38;;;;;;;;;;5052595;28;20478;-71
2021/11/11 03:01:17;;;;;;;12.05;5.63;;;;;;;;;;5052985;28;20472;-71
2021/11/11 03:03:43;;;;;;;9.77;5.18;;;;;;;;;;5052898;28;20476;-70
2021/11/11 03:06:10;;;;;;;11.65;5.57;;;;;;;;;;5052427;28;20029;-70
2021/11/11 03:08:36;;;;;;;12.82;6.30;;;;;;;;;;5052929;28;20021;-71
2021/11/11 03:11:05;;;;;;;11.73;6.35;;;;;;;;;;5052876;28;20385;-70
2021/11/11 03:13:31;;;;;;;11.40;4.78;;;;;;;;;;5052381;28;20108;-71
2021/11/11 03:15:58;;;;;;;11.85;5.68;;;;;;;;;;5051512;28;20036;-70
2021/11/11 03:18:25;;;;;;;15.80;6.22;;;;;;;;;;5052828;28;20044;-70
2021/11/11 03:20:51;;;;;;;12.18;6.38;;;;;;;;;;5051494;28;20017;-70
2021/11/11 03:23:18;;;;;;;15.20;7.72;;;;;;;;;;5052788;28;20021;-70
2021/11/11 03:25:44;;;;;;;18.98;8.25;;;;;;;;;;5052631;28;20033;-70
2021/11/11 03:28:10;;;;;;;12.80;7.53;;;;;;;;;;5052842;28;20025;-70
2021/11/11 03:30:37;;;;;;;14.07;7.28;;;;;;;;;;5052722;28;20029;-70
2021/11/11 03:33:05;;;;;;;16.95;8.50;;;;;;;;;;5052117;28;20049;-71
2021/11/11 03:35:31;;;;;;;13.63;7.57;;;;;;;;;;5052669;28;20021;-70
2021/11/11 03:37:58;;;;;;;14.40;7.97;;;;;;;;;;5052594;28;20036;-71
2021/11/11 03:40:26;;;;;;;19.00;7.10;;;;;;;;;;5055012;28;20354;-71
2021/11/11 03:42:53;;;;;;;12.25;6.13;;;;;;;;;;5056219;28;20021;-70
2021/11/11 03:45:20;;;;;;;10.63;6.00;;;;;;;;;;5056359;28;20025;-70
2021/11/11 03:47:49;;;;;;;12.45;5.80;;;;;;;;;;5055777;28;20064;-70
2021/11/11 03:50:17;;;;;;;10.18;5.38;;;;;;;;;;5056005;28;20025;-70
2021/11/11 03:52:43;;;;;;;11.30;5.97;;;;;;;;;;5056089;28;20040;-70
2021/11/11 03:55:11;;;;;;;10.05;6.70;;;;;;;;;;5055542;28;20055;-71
2021/11/11 03:57:37;;;;;;;13.38;7.25;;;;;;;;;;5055917;28;20036;-71
2021/11/11 04:00:05;;;;;;;11.90;6.15;;;;;;;;;;5055809;28;20024;-71
2021/11/11 04:02:31;;;;;;;12.00;6.38;;;;;;;;;;5055505;28;20025;-71
2021/11/11 04:04:57;;;;;;;9.93;5.63;;;;;;;;;;5055723;28;20039;-70
2021/11/11 04:07:24;;;;;;;13.57;6.78;;;;;;;;;;5054980;28;20029;-70
2021/11/11 04:09:50;;;;;;;13.00;6.55;;;;;;;;;;5055375;28;20053;-70
2021/11/11 04:12:16;;;;;;;14.95;7.22;;;;;;;;;;5055794;28;20035;-70
2021/11/11 04:14:42;;;;;;;15.45;7.28;;;;;;;;;;5053948;28;20017;-71
2021/11/11 04:17:08;;;;;;;13.52;6.70;;;;;;;;;;5055611;28;20092;-71
2021/11/11 04:19:34;;;;;;;15.35;8.50;;;;;;;;;;5055461;28;20552;-70
2021/11/11 04:22:01;;;;;;;13.80;7.32;;;;;;;;;;5055079;28;20416;-68
2021/11/11 04:24:27;;;;;;;12.68;6.90;;;;;;;;;;5054108;28;20119;-70
2021/11/11 04:29:25;;;;;;;12.90;7.05;;;;;;;;;;5054956;28;20178;-69
2021/11/11 04:31:57;;;;;;;14.02;8.10;;;;;;;;;;5054887;28;20475;-68
2021/11/11 04:34:24;;;;;;;11.73;7.88;;;;;;;;;;5054531;28;20430;-68
2021/11/11 05:01:46;;;;;;;15.30;8.20;;;;;;;;;;5054651;28;20028;-67
2021/11/11 05:04:12;;;;;;;14.05;8.32;;;;;;;;;;5053381;28;20091;-67
2021/11/11 05:06:38;;;;;;;16.02;9.40;;;;;;;;;;5054578;28;20032;-70
2021/11/11 05:09:04;;;;;;;17.15;9.85;;;;;;;;;;5054668;28;20436;-72
2021/11/11 05:11:30;;;;;;;21.02;11.45;;;;;;;;;;5054007;28;20017;-70
2021/11/11 05:13:57;;;;;;;18.10;10.77;;;;;;;;;;5054616;28;20477;-70
2021/11/11 05:16:24;;;;;;;18.23;10.55;;;;;;;;;;5054760;28;20032;-71
2021/11/11 05:18:50;;;;;;;19.55;10.88;;;;;;;;;;5054037;28;20469;-70
2021/11/11 05:21:16;;;;;;;27.90;16.33;;;;;;;;;;5054248;28;20033;-71
2021/11/11 05:23:42;;;;;;;26.10;16.60;;;;;;;;;;5054345;28;20025;-70
2021/11/11 05:26:09;;;;;;;19.75;12.57;;;;;;;;;;5053782;28;20025;-71
2021/11/11 05:28:36;;;;;;;18.98;11.07;;;;;;;;;;5054240;28;20025;-70
2021/11/11 05:31:02;;;;;;;16.48;9.70;;;;;;;;;;5053910;28;20013;-71
2021/11/11 05:33:28;;;;;;;16.95;9.77;;;;;;;;;;5053877;28;20037;-71
2021/11/11 05:35:55;;;;;;;16.10;9.10;;;;;;;;;;5054138;28;20075;-69
2021/11/11 05:38:21;;;;;;;18.20;8.88;;;;;;;;;;5054085;28;20146;-71
2021/11/11 05:40:47;;;;;;;22.13;13.55;;;;;;;;;;5053808;28;20036;-71
2021/11/11 05:43:14;;;;;;;24.50;11.77;;;;;;;;;;5054135;28;20021;-70
2021/11/11 05:45:40;;;;;;;18.88;10.70;;;;;;;;;;5054161;28;20074;-70
2021/11/11 05:48:06;;;;;;;20.50;9.85;;;;;;;;;;5053492;28;20025;-70
2021/11/11 05:50:32;;;;;;;18.25;9.82;;;;;;;;;;5053696;28;20528;-69
2021/11/11 05:52:59;;;;;;;22.63;14.95;;;;;;;;;;5053798;28;20044;-71
2021/11/11 05:55:25;;;;;;;27.45;16.75;;;;;;;;;;5053257;28;20096;-67
2021/11/11 05:57:51;;;;;;;30.73;16.42;;;;;;;;;;5054149;28;20524;-68
2021/11/11 06:00:19;;;;;;;21.58;11.95;;;;;;;;;;5052060;28;20029;-70
2021/11/11 06:02:46;;;;;;;19.73;11.75;;;;;;;;;;5053849;28;20052;-70
2021/11/11 06:05:12;;;;;;;17.40;9.00;;;;;;;;;;5055448;28;20374;-68
2021/11/11 06:07:42;;;;;;;16.42;9.32;;;;;;;;;;5052908;28;20044;-68
2021/11/11 06:10:09;;;;;;;17.52;9.20;;;;;;;;;;5053523;28;20457;-68
2021/11/11 06:12:35;;;;;;;16.45;9.50;;;;;;;;;;5053306;28;20033;-69
2021/11/11 06:15:01;;;;;;;16.52;10.65;;;;;;;;;;5048478;28;20025;-68
2021/11/11 06:17:27;;;;;;;18.70;11.52;;;;;;;;;;5052562;28;20025;-68
2021/11/11 06:19:54;;;;;;;22.50;12.57;;;;;;;;;;5047905;28;20065;-68
2021/11/11 06:22:21;;;;;;;22.73;12.05;;;;;;;;;;5051877;28;20396;-70
2021/11/11 06:24:47;;;;;;;24.38;12.25;;;;;;;;;;5050165;28;20062;-69
2021/11/11 06:27:13;;;;;;;17.52;10.55;;;;;;;;;;5052816;28;20105;-72
2021/11/11 06:29:40;;;;;;;21.60;14.05;;;;;;;;;;5052994;28;20026;-71
2021/11/11 06:32:06;;;;;;;19.48;12.20;;;;;;;;;;5053079;28;20041;-73
2021/11/11 06:34:32;;;;;;;27.00;13.55;;;;;;;;;;5042075;28;20444;-71
2021/11/11 06:36:58;;;;;;;22.80;12.77;;;;;;;;;;5043518;28;20013;-73
2021/11/11 06:39:26;;;;;;;31.58;16.55;;;;;;;;;;5043334;28;20036;-71
2021/11/11 06:41:52;;;;;;;56.10;30.65;;;;;;;;;;5049267;28;20021;-71
2021/11/11 06:44:22;;;;;;;58.75;31.42;;;;;;;;;;5045729;28;20025;-71
2021/11/11 06:46:48;;;;;;;62.05;32.08;;;;;;;;;;5049383;28;20116;-72
2021/11/11 06:49:15;;;;;;;31.98;16.27;;;;;;;;;;5049922;28;20049;-73
2021/11/11 06:51:41;;;;;;;20.02;11.85;;;;;;;;;;5048155;28;20043;-72
2021/11/11 06:54:08;;;;;;;18.40;10.90;;;;;;;;;;5049422;28;20039;-72
2021/11/11 06:56:35;;;;;;;20.10;11.18;;;;;;;;;;5047969;28;20027;-73
2021/11/11 06:59:01;;;;;;;23.52;12.93;;;;;;;;;;5050620;28;20711;-72
2021/11/11 07:01:27;;;;;;;22.25;10.57;;;;;;;;;;5052285;28;20100;-72
2021/11/11 07:03:53;;;;;;;26.65;14.32;;;;;;;;;;5051354;28;20061;-72
2021/11/11 07:06:20;;;;;;;29.02;16.70;;;;;;;;;;5052269;28;20021;-72
2021/11/11 07:08:46;;;;;;;27.70;15.15;;;;;;;;;;5052072;28;20039;-72
2021/11/11 07:11:12;;;;;;;26.60;16.42;;;;;;;;;;5051339;28;20025;-72
2021/11/11 07:13:38;;;;;;;25.80;15.23;;;;;;;;;;5052503;28;20075;-72
2021/11/11 07:16:05;;;;;;;26.55;14.10;;;;;;;;;;5051640;28;20029;-72
2021/11/11 07:18:31;;;;;;;37.38;20.20;;;;;;;;;;5054656;28;20025;-71
2021/11/11 07:20:57;;;;;;;30.05;16.98;;;;;;;;;;5055280;28;20029;-73
2021/11/11 07:23:24;;;;;;;27.20;15.77;;;;;;;;;;5054888;28;20028;-72
2021/11/11 07:25:51;;;;;;;21.33;12.55;;;;;;;;;;5054890;28;20455;-72
2021/11/11 07:28:17;;;;;;;21.90;12.20;;;;;;;;;;5055681;28;20485;-72
2021/11/11 07:30:44;;;;;;;24.88;13.70;;;;;;;;;;5055011;28;20025;-72
2021/11/11 07:33:11;;;;;;;23.35;12.23;;;;;;;;;;5054753;28;20492;-71
2021/11/11 07:35:39;;;;;;;34.85;17.63;;;;;;;;;;5055536;28;20545;-73
2021/11/11 07:38:05;;;;;;;26.80;14.00;;;;;;;;;;5055327;28;20055;-72
2021/11/11 07:40:32;;;;;;;23.00;15.15;;;;;;;;;;5054867;28;20547;-72
2021/11/11 07:42:58;;;;;;;23.85;14.43;;;;;;;;;;5055612;28;20424;-72
2021/11/11 07:45:25;;;;;;;21.70;12.70;;;;;;;;;;5054969;28;20480;-72
2021/11/11 07:47:56;;;;;;;20.15;11.52;;;;;;;;;;5054860;28;20538;-72
2021/11/11 07:50:23;;;;;;;20.98;11.02;;;;;;;;;;5053954;28;20469;-72
2021/11/11 07:52:50;;;;;;;20.13;10.60;;;;;;;;;;5052855;28;20028;-72
2021/11/11 07:55:17;;;;;;;15.57;9.82;;;;;;;;;;5052898;28;20401;-73
2021/11/11 07:57:44;;;;;;;17.48;9.85;;;;;;;;;;5055057;28;20020;-73
2021/11/11 08:00:12;;;;;;;54.80;28.42;;;;;;;;;;5051223;28;20017;-72
2021/11/11 08:02:40;;;;;;;26.30;14.18;;;;;;;;;;5053973;28;20112;-73
2021/11/11 08:05:07;;;;;;;20.88;13.15;;;;;;;;;;5056964;28;20465;-72
2021/11/11 08:07:34;;;;;;;21.65;11.15;;;;;;;;;;5054690;28;20136;-72
2021/11/11 08:10:00;;;;;;;17.17;10.05;;;;;;;;;;5054826;28;20408;-72
2021/11/11 08:12:26;;;;;;;14.15;9.00;;;;;;;;;;5053975;28;20039;-72
2021/11/11 08:14:53;;;;;;;11.55;7.18;;;;;;;;;;5053017;28;20473;-72
2021/11/11 08:17:21;;;;;;;19.65;11.50;;;;;;;;;;5052563;28;20016;-73
2021/11/11 08:19:53;;;;;;;14.25;8.15;;;;;;;;;;5054499;28;20055;-74
2021/11/11 08:22:19;;;;;;;26.92;16.08;;;;;;;;;;5052929;28;20083;-73
2021/11/11 08:24:45;;;;;;;15.88;10.30;;;;;;;;;;5053847;28;20381;-73
2021/11/11 08:27:13;;;;;;;13.82;7.72;;;;;;;;;;5054741;28;20029;-73
2021/11/11 08:29:40;;;;;;;10.02;6.22;;;;;;;;;;5053114;28;20163;-72
2021/11/11 08:32:06;;;;;;;12.98;6.70;;;;;;;;;;5053020;28;20053;-73
2021/11/11 08:34:52;;;;;;;12.05;6.35;;;;;;;;;;5108020;27;21157;-72
2021/11/11 08:37:19;;;;;;;16.38;9.13;;;;;;;;;;5108082;28;20036;-72
2021/11/11 08:39:46;;;;;;;15.68;7.35;;;;;;;;;;5108843;28;20190;-72
2021/11/11 08:42:14;;;;;;;12.50;7.00;;;;;;;;;;5108904;28;20055;-73
2021/11/11 08:44:44;;;;;;;10.32;6.32;;;;;;;;;;5109256;28;20372;-73
2021/11/11 08:47:12;;;;;;;15.32;7.35;;;;;;;;;;5106120;28;20024;-72
2021/11/11 08:49:38;;;;;;;13.32;7.45;;;;;;;;;;5108163;28;20077;-73
2021/11/11 08:52:29;;;;;;;11.57;6.60;;;;;;;;;;5110710;27;20397;-73
2021/11/11 08:54:58;;;;;;;15.27;8.95;;;;;;;;;;5110230;28;20028;-73
2021/11/11 08:57:24;;;;;;;15.23;9.02;;;;;;;;;;5109346;28;20020;-73
2021/11/11 08:59:53;;;;;;;15.20;7.85;;;;;;;;;;5110931;28;20485;-74
2021/11/11 09:02:20;;;;;;;18.95;11.35;;;;;;;;;;5109962;28;20039;-73
2021/11/11 09:04:47;;;;;;;16.85;10.30;;;;;;;;;;5109821;28;20468;-73
2021/11/11 09:07:13;;;;;;;14.63;8.48;;;;;;;;;;5107554;28;20096;-73
2021/11/11 09:09:39;;;;;;;13.63;7.45;;;;;;;;;;5109521;28;20698;-73
2021/11/11 09:12:06;;;;;;;21.33;11.93;;;;;;;;;;5109823;28;20032;-71
2021/11/11 09:14:34;;;;;;;13.93;8.25;;;;;;;;;;5110159;28;20024;-73
2021/11/11 09:17:00;;;;;;;14.60;7.82;;;;;;;;;;5110148;28;20415;-73
2021/11/11 09:19:26;;;;;;;15.57;8.63;;;;;;;;;;5109904;28;20019;-72
2021/11/11 09:24:19;;;;;;;13.30;8.13;;;;;;;;;;5066816;28;20430;-74
2021/11/11 09:26:45;;;;;;;14.43;8.57;;;;;;;;;;5066083;28;20047;-72
2021/11/11 09:29:12;;;;;;;10.50;6.05;;;;;;;;;;5066731;28;20048;-72
2021/11/11 09:33:23;;;;;;;12.07;6.40;;;;;;;;;;5068981;28;20759;-72
2021/11/11 09:39:20;;;;;;;14.25;5.90;;;;;;;;;;5064415;28;20395;-73
2021/11/11 09:41:47;;;;;;;14.90;7.22;;;;;;;;;;5067209;28;20025;-73
2021/11/11 09:44:16;;;;;;;13.40;6.75;;;;;;;;;;5070187;28;20029;-75
2021/11/11 09:46:45;;;;;;;11.13;6.35;;;;;;;;;;5069044;28;20029;-72
2021/11/11 09:50:42;;;;;;;12.02;6.95;;;;;;;;;;5110481;27;20397;-74
2021/11/11 09:58:34;;;;;;;11.70;6.65;;;;;;;;;;5109254;27;20520;-73
2021/11/11 09:59:37;;;;;;;19.85;7.72;;;;;;;;;;5110506;28;20511;-75
2021/11/11 10:02:40;;;;;;;15.07;9.40;;;;;;;;;;5110315;27;20458;-74
2021/11/11 10:05:32;;;;;;;23.00;9.98;;;;;;;;;;5110395;27;20466;-75
2021/11/11 10:07:59;;;;;;;28.70;16.63;;;;;;;;;;5109267;28;20067;-77
2021/11/11 10:10:37;;;;;;;29.35;13.23;;;;;;;;;;5109604;28;20028;-77
2021/11/11 10:13:12;;;;;;;17.75;10.43;;;;;;;;;;5110805;28;20435;-74
2021/11/11 10:15:57;;;;;;;18.05;9.07;;;;;;;;;;5110468;28;20027;-73
2021/11/11 10:19:55;;;;;;;14.77;8.25;;;;;;;;;;5110622;27;20397;-73
2021/11/11 10:25:13;;;;;;;14.65;6.90;;;;;;;;;;5110686;27;20392;-72
2021/11/11 10:27:46;;;;;;;12.48;6.10;;;;;;;;;;5110571;28;20036;-72
2021/11/11 10:30:13;;;;;;;11.95;6.75;;;;;;;;;;5107915;28;20888;-72
2021/11/11 10:32:41;;;;;;;13.07;7.03;;;;;;;;;;5110318;28;20024;-72
2021/11/11 10:35:21;;;;;;;15.27;8.27;;;;;;;;;;5109377;28;20026;-72
2021/11/11 10:40:02;;;;;;;13.27;7.05;;;;;;;;;;5108285;27;20412;-72
2021/11/11 10:42:29;;;;;;;12.13;5.90;;;;;;;;;;5107483;28;20514;-72
2021/11/11 10:44:56;;;;;;;13.23;7.35;;;;;;;;;;5109056;28;20081;-73
2021/11/11 10:48:47;;;;;;;10.63;6.15;;;;;;;;;;5108832;27;20393;-74
2021/11/11 10:51:14;;;;;;;11.45;5.97;;;;;;;;;;5108914;28;20028;-73
2021/11/11 10:53:42;;;;;;;21.35;10.60;;;;;;;;;;5108335;28;20119;-73
2021/11/11 10:56:24;;;;;;;39.08;19.42;;;;;;;;;;5170171;27;20106;-72
2021/11/11 10:58:50;;;;;;;23.35;12.23;;;;;;;;;;5151410;27;20035;-73
2021/11/11 11:01:19;;;;;;;13.75;6.75;;;;;;;;;;5151026;27;20021;-73
2021/11/11 11:04:02;;;;;;;11.52;6.43;;;;;;;;;;5108966;27;20392;-74
2021/11/11 11:06:28;;;;;;;27.80;12.05;;;;;;;;;;5109506;28;20107;-73
2021/11/11 11:08:58;;;;;;;20.60;9.68;;;;;;;;;;5110514;28;20024;-74
2021/11/11 11:14:55;;;;;;;10.98;5.28;;;;;;;;;;5110401;27;20466;-74
2021/11/11 11:17:21;;;;;;;12.88;6.40;;;;;;;;;;5108936;28;20020;-73
2021/11/11 11:19:48;;;;;;;14.68;7.22;;;;;;;;;;5110407;28;20028;-73
2021/11/11 11:23:25;;;;;;;11.48;6.60;;;;;;;;;;5090733;27;20453;-74
2021/11/11 11:25:59;;;;;;;17.52;10.40;;;;;;;;;;5087208;28;20698;-72
2021/11/11 11:28:31;;;;;;;8.38;4.82;;;;;;;;;;5086900;28;20032;-73
2021/11/11 11:31:35;;;;;;;8.13;4.95;;;;;;;;;;5110163;27;20454;-72
2021/11/11 11:34:06;;;;;;;9.82;4.78;;;;;;;;;;5110161;28;20115;-72
2021/11/11 11:37:41;;;;;;;10.10;5.30;;;;;;;;;;5090058;27;20397;-73
2021/11/11 11:44:18;;;;;;;18.27;9.68;;;;;;;;;;5108535;27;20438;-76
2021/11/11 11:47:04;;;;;;;10.60;4.75;;;;;;;;;;5109518;28;20024;-72
2021/11/11 11:49:41;;;;;;;7.30;4.03;;;;;;;;;;5109118;28;20024;-75
2021/11/11 11:52:32;;;;;;;9.77;4.35;;;;;;;;;;5172249;27;20311;-73
2021/11/11 11:56:48;;;;;;;14.65;5.97;;;;;;;;;;5090357;27;20463;-73
2021/11/11 11:59:18;;;;;;;12.68;7.40;;;;;;;;;;5089998;28;20043;-70
2021/11/11 12:07:08;;;;;;;13.45;7.65;;;;;;;;;;5110348;28;20032;-72
2021/11/11 12:09:43;;;;;;;9.73;4.63;;;;;;;;;;5110162;28;20027;-74
2021/11/11 12:15:26;;;;;;;13.68;6.30;;;;;;;;;;5110141;28;20089;-72
2021/11/11 12:38:50;;;;;;;14.10;7.25;;;;;;;;;;5111045;27;20406;-74
2021/11/11 12:41:17;;;;;;;13.38;5.70;;;;;;;;;;5110890;28;20514;-73
2021/11/11 12:43:45;;;;;;;11.07;6.10;;;;;;;;;;5110796;28;20027;-71
2021/11/11 12:46:41;;;;;;;15.77;8.80;;;;;;;;;;5111096;28;20103;-73
2021/11/11 12:49:23;;;;;;;21.65;11.73;;;;;;;;;;5097513;28;20036;-73
2021/11/11 12:53:22;;;;;;;10.93;6.45;;;;;;;;;;5111008;27;20462;-72
2021/11/11 12:55:57;;;;;;;10.75;4.63;;;;;;;;;;5110402;28;20032;-72
2021/11/11 12:58:38;;;;;;;15.65;9.10;;;;;;;;;;5111072;28;20027;-72
2021/11/11 13:01:09;;;;;;;11.27;5.22;;;;;;;;;;5110995;28;20028;-72
2021/11/11 13:03:55;;;;;;;10.65;5.45;;;;;;;;;;5050258;28;20434;-74
2021/11/11 13:06:35;;;;;;;17.10;10.38;;;;;;;;;;5050411;28;20056;-71
2021/11/11 13:09:04;;;;;;;14.10;6.72;;;;;;;;;;5050446;28;20026;-72
2021/11/11 13:11:31;;;;;;;14.00;6.75;;;;;;;;;;5050058;28;20021;-73
2021/11/11 13:14:19;;;;;;;10.60;5.95;;;;;;;;;;5048551;28;20104;-71
2021/11/11 13:17:05;;;;;;;17.02;9.82;;;;;;;;;;5044559;28;20045;-70
2021/11/11 13:19:44;;;;;;;10.90;5.53;;;;;;;;;;5036350;28;20075;-72
2021/11/11 13:22:22;;;;;;;8.82;4.45;;;;;;;;;;5049408;28;20029;-72
2021/11/11 13:27:07;;;;;;;10.50;5.43;;;;;;;;;;5110194;27;20385;-72
2021/11/11 13:58:58;;;;;;;20.23;10.20;;;;;;;;;;5111426;27;20396;-73
2021/11/11 14:04:12;;;;;;;19.77;11.15;;;;;;;;;;5088729;28;20161;-72
2021/11/11 15:17:59;;;;;;;65.57;37.80;;;;;;;;;;5110891;28;20035;-73
2021/11/11 16:28:30;;;;;;;105.78;64.35;;;;;;;;;;5110995;28;20067;-72
2021/11/11 16:31:48;;;;;;;110.55;68.88;;;;;;;;;;5112119;27;20404;-71
2021/11/11 16:36:11;;;;;;;80.38;53.45;;;;;;;;;;5109001;27;20384;-73
2021/11/11 16:38:38;;;;;;;70.18;44.30;;;;;;;;;;5109314;28;20031;-72
2021/11/11 16:41:07;;;;;;;119.20;68.95;;;;;;;;;;5108936;28;20095;-71
2021/11/11 16:45:33;;;;;;;99.35;58.67;;;;;;;;;;5068637;28;20395;-73
2021/11/11 16:50:01;;;;;;;102.72;60.90;;;;;;;;;;5068750;28;20395;-73
2021/11/11 16:52:29;;;;;;;125.00;79.30;;;;;;;;;;5070783;28;20445;-72
2021/11/11 16:54:55;;;;;;;144.23;93.15;;;;;;;;;;5070296;28;20508;-72
2021/11/11 16:57:22;;;;;;;148.68;82.53;;;;;;;;;;5070624;28;20033;-73
2021/11/11 17:01:37;;;;;;;110.28;68.47;;;;;;;;;;5111034;27;20397;-72
2021/11/11 17:05:59;;;;;;;138.88;86.88;;;;;;;;;;5111583;27;20439;-71
2021/11/11 17:08:25;;;;;;;157.63;95.55;;;;;;;;;;5110819;28;20023;-72
2021/11/11 17:11:59;;;;;;;134.70;83.30;;;;;;;;;;5111043;27;20495;-72
2021/11/11 17:14:28;;;;;;;135.82;78.65;;;;;;;;;;5111310;28;20030;-72
2021/11/11 17:16:55;;;;;;;128.70;82.03;;;;;;;;;;5110834;28;20065;-72
2021/11/11 17:19:24;;;;;;;131.80;79.30;;;;;;;;;;5110381;28;20027;-72
2021/11/11 17:21:50;;;;;;;127.15;77.85;;;;;;;;;;5111478;28;20020;-72
2021/11/11 17:24:22;;;;;;;149.02;90.78;;;;;;;;;;5110830;28;20054;-72
2021/11/11 17:29:25;;;;;;;217.65;127.15;;;;;;;;;;5111327;28;20464;-72
2021/11/11 17:31:54;;;;;;;230.75;140.93;;;;;;;;;;5110865;28;20110;-72
2021/11/11 17:34:21;;;;;;;220.63;135.73;;;;;;;;;;5109806;28;20020;-72
2021/11/11 17:36:47;;;;;;;241.90;144.20;;;;;;;;;;5110449;28;20701;-72
2021/11/11 17:39:13;;;;;;;237.60;143.75;;;;;;;;;;5111197;28;20016;-72
2021/11/11 17:41:42;;;;;;;209.25;120.30;;;;;;;;;;5110133;28;20019;-73
2021/11/11 17:44:10;;;;;;;162.73;90.03;;;;;;;;;;5110456;28;20472;-72
2021/11/11 17:46:38;;;;;;;117.28;67.35;;;;;;;;;;5110647;28;20102;-72
2021/11/11 17:49:10;;;;;;;89.95;54.63;;;;;;;;;;5111143;28;20031;-72
2021/11/11 17:51:56;;;;;;;68.93;44.25;;;;;;;;;;5110335;28;20061;-72
2021/11/11 17:54:31;;;;;;;67.15;42.42;;;;;;;;;;5110578;28;20048;-72
2021/11/11 17:56:57;;;;;;;81.05;48.65;;;;;;;;;;5110507;28;20383;-73
2021/11/11 17:59:25;;;;;;;69.10;43.15;;;;;;;;;;5108870;28;20113;-72
2021/11/11 18:01:52;;;;;;;70.10;45.17;;;;;;;;;;5110853;28;20026;-72
2021/11/11 18:04:18;;;;;;;62.83;39.85;;;;;;;;;;5110464;28;20023;-71
2021/11/11 18:06:51;;;;;;;72.78;42.28;;;;;;;;;;5109846;28;20487;-71
2021/11/11 18:09:28;;;;;;;57.83;36.95;;;;;;;;;;5110356;28;20020;-71
2021/11/11 18:12:02;;;;;;;50.92;34.50;;;;;;;;;;5109662;28;20587;-72
2021/11/11 18:14:28;;;;;;;54.65;33.88;;;;;;;;;;5110416;28;20024;-72
2021/11/11 18:16:55;;;;;;;56.75;35.20;;;;;;;;;;5110070;28;20054;-71
2021/11/11 18:19:21;;;;;;;52.05;34.97;;;;;;;;;;5109628;28;20024;-71
2021/11/11 18:21:48;;;;;;;57.00;38.75;;;;;;;;;;5104746;28;20020;-72
2021/11/11 18:24:14;;;;;;;57.20;34.15;;;;;;;;;;5096321;28;20048;-71
2021/11/11 18:26:41;;;;;;;59.92;35.17;;;;;;;;;;5095846;28;20031;-71
2021/11/11 18:31:41;;;;;;;58.72;36.20;;;;;;;;;;5096121;28;20028;-71
2021/11/11 18:36:42;;;;;;;87.50;52.85;;;;;;;;;;5096694;28;20379;-71
2021/11/11 18:39:19;;;;;;;87.13;52.50;;;;;;;;;;5096429;28;20387;-72
2021/11/11 18:41:46;;;;;;;74.75;46.15;;;;;;;;;;5095809;28;20480;-72
2021/11/11 18:44:14;;;;;;;87.05;51.88;;;;;;;;;;5096140;28;20105;-72
2021/11/11 18:46:43;;;;;;;92.60;54.58;;;;;;;;;;5095897;28;20028;-72
2021/11/11 18:49:10;;;;;;;71.38;44.03;;;;;;;;;;5095601;28;20023;-72
2021/11/11 18:51:38;;;;;;;71.50;43.25;;;;;;;;;;5095779;28;20183;-72
2021/11/11 18:54:06;;;;;;;57.92;36.60;;;;;;;;;;5094247;28;20040;-72
2021/11/11 18:56:33;;;;;;;59.80;36.97;;;;;;;;;;5095735;28;20020;-71
2021/11/11 18:58:59;;;;;;;71.80;48.72;;;;;;;;;;5095737;28;20028;-73
2021/11/11 19:01:26;;;;;;;168.98;101.28;;;;;;;;;;5095553;28;20047;-71
2021/11/11 19:03:56;;;;;;;136.15;82.90;;;;;;;;;;5095642;28;20028;-72
2021/11/11 19:06:27;;;;;;;109.55;67.10;;;;;;;;;;5095738;28;20059;-72
2021/11/11 19:11:38;;;;;;;88.78;49.63;;;;;;;;;;5095335;28;20047;-72
2021/11/11 19:14:07;;;;;;;79.20;39.92;;;;;;;;;;5095558;28;20060;-72
2021/11/11 19:16:37;;;;;;;63.38;38.70;;;;;;;;;;5093760;28;20438;-73